Time;durP1;ratioP1;P1;durP2;ratioP2;P2;SDS_P1;SDS_P2;PMS_P1;PMS_P2;Temp;Humidity;BMP_temperature;BMP_pressure;BME280_temperature;BME280_humidity;BME280_pressure;Samples;Min_cycle;Max_cycle;Signal;HPM_P1;HPM_P2
2023/04/08 00:01:53;;;;;;;13.50;9.67;;;;;;;;;;4993697;28;20909;-93
2023/04/08 00:04:19;;;;;;;15.30;10.80;;;;;;;;;;5002474;28;20459;-93
2023/04/08 00:06:45;;;;;;;17.23;9.60;;;;;;;;;;4998693;28;20411;-94
2023/04/08 00:09:14;;;;;;;13.60;10.13;;;;;;;;;;4990781;28;20769;-93
2023/04/08 00:11:40;;;;;;;16.30;9.37;;;;;;;;;;5002367;28;20438;-93
2023/04/08 00:14:06;;;;;;;16.70;10.23;;;;;;;;;;4983505;28;20440;-93
2023/04/08 00:16:32;;;;;;;12.77;8.83;;;;;;;;;;4987597;28;20507;-93
2023/04/08 00:18:58;;;;;;;16.33;11.00;;;;;;;;;;5004256;28;20431;-93
2023/04/08 00:21:25;;;;;;;14.13;10.80;;;;;;;;;;4991188;28;20454;-94
2023/04/08 00:23:54;;;;;;;15.23;10.50;;;;;;;;;;4995322;28;20484;-93
2023/04/08 00:26:20;;;;;;;15.00;11.13;;;;;;;;;;4985388;28;20873;-93
2023/04/08 00:28:46;;;;;;;14.60;11.10;;;;;;;;;;5014838;28;20528;-93
2023/04/08 00:31:15;;;;;;;13.10;9.50;;;;;;;;;;4985192;28;20428;-93
2023/04/08 00:33:41;;;;;;;13.20;9.53;;;;;;;;;;4990031;28;20429;-93
2023/04/08 00:36:07;;;;;;;17.50;10.63;;;;;;;;;;4986615;28;20413;-93
2023/04/08 00:38:33;;;;;;;16.90;9.57;;;;;;;;;;4985428;28;20431;-93
2023/04/08 00:40:59;;;;;;;14.90;10.50;;;;;;;;;;4985870;28;20431;-94
2023/04/08 00:43:30;;;;;;;16.10;10.37;;;;;;;;;;4995065;28;20510;-93
2023/04/08 00:46:00;;;;;;;16.50;10.00;;;;;;;;;;4991137;28;20418;-93
2023/04/08 00:48:26;;;;;;;14.90;10.00;;;;;;;;;;4985680;28;20435;-93
2023/04/08 00:50:52;;;;;;;14.97;10.50;;;;;;;;;;4989692;28;20931;-93
2023/04/08 00:53:18;;;;;;;15.30;10.47;;;;;;;;;;4990122;28;20422;-93
2023/04/08 00:55:45;;;;;;;15.57;10.53;;;;;;;;;;4988634;28;20424;-93
2023/04/08 00:58:11;;;;;;;13.53;9.17;;;;;;;;;;4983287;28;20486;-92
2023/04/08 01:00:37;;;;;;;12.07;9.47;;;;;;;;;;4986201;28;20420;-93
2023/04/08 01:03:14;;;;;;;14.00;10.80;;;;;;;;;;4985944;28;20460;-93
2023/04/08 01:06:00;;;;;;;14.40;9.97;;;;;;;;;;5004343;28;20517;-93
2023/04/08 01:08:26;;;;;;;18.77;10.30;;;;;;;;;;5001621;28;20409;-93
2023/04/08 01:10:53;;;;;;;14.07;9.90;;;;;;;;;;4984835;28;20816;-93
2023/04/08 01:13:19;;;;;;;16.13;10.13;;;;;;;;;;4988035;28;21027;-93
2023/04/08 01:15:45;;;;;;;17.43;11.20;;;;;;;;;;4987688;28;20447;-94
2023/04/08 01:18:15;;;;;;;13.17;10.40;;;;;;;;;;4974943;28;20410;-94
2023/04/08 01:20:41;;;;;;;12.83;9.83;;;;;;;;;;4973260;28;20436;-93
2023/04/08 01:23:13;;;;;;;16.33;12.63;;;;;;;;;;4979915;28;20535;-93
2023/04/08 01:25:39;;;;;;;16.63;10.97;;;;;;;;;;4995242;28;20517;-93
2023/04/08 01:28:15;;;;;;;16.83;11.50;;;;;;;;;;4970056;28;20415;-92
2023/04/08 01:30:41;;;;;;;15.07;10.27;;;;;;;;;;4971276;28;20412;-92
2023/04/08 01:33:10;;;;;;;15.03;11.07;;;;;;;;;;4964015;28;20452;-93
2023/04/08 01:35:36;;;;;;;15.70;9.87;;;;;;;;;;4987076;28;20408;-94
2023/04/08 01:38:02;;;;;;;15.07;11.17;;;;;;;;;;4978378;28;20424;-93
2023/04/08 01:40:28;;;;;;;16.73;10.67;;;;;;;;;;4972672;28;20502;-93
2023/04/08 01:42:54;;;;;;;14.93;10.23;;;;;;;;;;4975869;28;20459;-93
2023/04/08 01:45:20;;;;;;;16.73;11.23;;;;;;;;;;4983800;28;20458;-94
2023/04/08 01:47:47;;;;;;;18.30;11.10;;;;;;;;;;4992850;28;20443;-93
2023/04/08 01:50:13;;;;;;;12.80;9.53;;;;;;;;;;4985407;28;20725;-93
2023/04/08 01:52:39;;;;;;;15.50;10.97;;;;;;;;;;5004847;28;20424;-94
2023/04/08 01:55:05;;;;;;;17.63;10.73;;;;;;;;;;4985780;28;20864;-93
2023/04/08 01:57:31;;;;;;;18.60;11.97;;;;;;;;;;4998207;28;20433;-93
2023/04/08 02:00:00;;;;;;;17.93;11.83;;;;;;;;;;5011468;28;20443;-93
2023/04/08 02:02:26;;;;;;;20.40;12.20;;;;;;;;;;4997481;28;20925;-93
2023/04/08 02:04:53;;;;;;;20.20;11.30;;;;;;;;;;4989345;28;20471;-93
2023/04/08 02:07:19;;;;;;;21.60;11.70;;;;;;;;;;4988044;28;20432;-93
2023/04/08 02:09:45;;;;;;;17.17;10.47;;;;;;;;;;4983086;28;20421;-93
2023/04/08 02:12:11;;;;;;;14.40;10.30;;;;;;;;;;4995630;28;20433;-93
2023/04/08 02:14:37;;;;;;;21.30;13.13;;;;;;;;;;4990050;28;20408;-94
2023/04/08 02:17:26;;;;;;;18.50;12.33;;;;;;;;;;4984793;28;20431;-92
2023/04/08 02:19:55;;;;;;;21.67;12.00;;;;;;;;;;4984859;28;20436;-93
2023/04/08 02:22:40;;;;;;;18.87;12.20;;;;;;;;;;4988815;28;20436;-93
2023/04/08 02:25:11;;;;;;;19.33;11.97;;;;;;;;;;5031374;28;20440;-93
2023/04/08 02:27:37;;;;;;;16.17;10.50;;;;;;;;;;4988636;28;20465;-92
2023/04/08 02:30:04;;;;;;;17.20;12.37;;;;;;;;;;4986047;28;20614;-93
2023/04/08 02:32:30;;;;;;;18.30;11.00;;;;;;;;;;5016711;28;20463;-93
2023/04/08 02:34:56;;;;;;;20.07;12.47;;;;;;;;;;5005456;28;20806;-92
2023/04/08 02:37:22;;;;;;;18.60;11.90;;;;;;;;;;4981305;28;20826;-93
2023/04/08 02:39:48;;;;;;;19.30;11.77;;;;;;;;;;4987473;28;20440;-93
2023/04/08 02:42:14;;;;;;;20.90;12.07;;;;;;;;;;4999672;28;20415;-93
2023/04/08 02:44:40;;;;;;;18.60;11.30;;;;;;;;;;4988075;28;20506;-94
2023/04/08 02:47:06;;;;;;;17.90;11.67;;;;;;;;;;4984581;28;20452;-94
2023/04/08 02:49:32;;;;;;;17.60;11.53;;;;;;;;;;4989445;28;20432;-93
2023/04/08 02:51:58;;;;;;;18.10;12.50;;;;;;;;;;5010535;28;20528;-93
2023/04/08 02:54:24;;;;;;;16.67;12.20;;;;;;;;;;5012329;28;20452;-93
2023/04/08 02:56:50;;;;;;;20.83;12.47;;;;;;;;;;4987064;28;20466;-93
2023/04/08 02:59:16;;;;;;;21.33;12.60;;;;;;;;;;4980452;28;20421;-93
2023/04/08 03:01:42;;;;;;;17.90;12.23;;;;;;;;;;4988802;28;20454;-93
2023/04/08 03:04:08;;;;;;;26.73;11.90;;;;;;;;;;4986768;28;20488;-93
2023/04/08 03:06:35;;;;;;;24.07;13.37;;;;;;;;;;4987722;28;20462;-93
2023/04/08 03:09:01;;;;;;;22.50;11.70;;;;;;;;;;4997805;28;21078;-93
2023/04/08 03:11:27;;;;;;;19.77;13.00;;;;;;;;;;5014778;28;20405;-93
2023/04/08 03:13:53;;;;;;;24.57;13.03;;;;;;;;;;5011336;28;20444;-93
2023/04/08 03:16:19;;;;;;;21.17;12.67;;;;;;;;;;5009798;28;20600;-93
2023/04/08 03:18:45;;;;;;;19.50;11.70;;;;;;;;;;4972972;28;20433;-92
2023/04/08 03:21:11;;;;;;;21.80;11.60;;;;;;;;;;4992557;28;20439;-93
2023/04/08 03:23:37;;;;;;;22.10;12.97;;;;;;;;;;4990860;28;20457;-93
2023/04/08 03:26:04;;;;;;;20.37;11.77;;;;;;;;;;4980347;28;20451;-93
2023/04/08 03:28:31;;;;;;;16.87;12.00;;;;;;;;;;4988518;28;20431;-93
2023/04/08 03:30:57;;;;;;;17.83;11.10;;;;;;;;;;4987546;28;20472;-93
2023/04/08 03:33:23;;;;;;;16.40;12.10;;;;;;;;;;4983247;28;21170;-93
2023/04/08 03:35:49;;;;;;;18.33;10.97;;;;;;;;;;5010026;28;20493;-93
2023/04/08 03:38:15;;;;;;;20.47;10.50;;;;;;;;;;5013584;28;20463;-93
2023/04/08 03:40:41;;;;;;;17.07;9.80;;;;;;;;;;4983137;28;20435;-93
2023/04/08 03:43:07;;;;;;;17.80;11.10;;;;;;;;;;4988692;28;20467;-93
2023/04/08 03:45:33;;;;;;;15.40;9.90;;;;;;;;;;4987744;28;20420;-93
2023/04/08 03:47:59;;;;;;;19.90;11.10;;;;;;;;;;5008396;28;20527;-93
2023/04/08 03:50:25;;;;;;;18.57;10.43;;;;;;;;;;5005914;28;20871;-93
2023/04/08 03:52:51;;;;;;;19.63;10.77;;;;;;;;;;4987446;28;20453;-93
2023/04/08 03:55:17;;;;;;;17.23;10.50;;;;;;;;;;4986507;28;20424;-94
2023/04/08 03:57:44;;;;;;;17.50;9.77;;;;;;;;;;4986322;28;20464;-93
2023/04/08 04:00:10;;;;;;;17.77;8.90;;;;;;;;;;4983486;28;20436;-93
2023/04/08 04:02:36;;;;;;;16.20;10.37;;;;;;;;;;4985790;28;20445;-93
2023/04/08 04:05:02;;;;;;;16.30;9.90;;;;;;;;;;4986748;28;20456;-93
2023/04/08 04:07:28;;;;;;;17.27;10.17;;;;;;;;;;4977174;28;20425;-92
2023/04/08 04:09:55;;;;;;;15.50;8.80;;;;;;;;;;4986966;28;20448;-94
2023/04/08 04:12:21;;;;;;;14.33;10.60;;;;;;;;;;4980274;28;21059;-93
2023/04/08 04:14:47;;;;;;;22.67;10.83;;;;;;;;;;5006968;28;20460;-94
2023/04/08 04:17:14;;;;;;;17.10;8.93;;;;;;;;;;4981982;28;20464;-93
2023/04/08 04:19:40;;;;;;;18.27;11.00;;;;;;;;;;4984949;28;20429;-93
2023/04/08 04:22:06;;;;;;;17.10;9.93;;;;;;;;;;4987368;28;20413;-93
2023/04/08 04:24:32;;;;;;;16.90;10.43;;;;;;;;;;4985595;28;20459;-93
2023/04/08 04:26:57;;;;;;;18.60;10.10;;;;;;;;;;4978524;28;20929;-93
2023/04/08 04:29:23;;;;;;;23.33;13.07;;;;;;;;;;4982790;28;20468;-93
2023/04/08 04:31:50;;;;;;;24.93;12.90;;;;;;;;;;4986899;28;20531;-93
2023/04/08 04:34:16;;;;;;;18.47;10.53;;;;;;;;;;5018929;28;20412;-93
2023/04/08 04:36:42;;;;;;;18.57;13.40;;;;;;;;;;4985552;28;20475;-92
2023/04/08 04:39:08;;;;;;;23.73;12.53;;;;;;;;;;4985862;28;20451;-92
2023/04/08 04:41:37;;;;;;;26.27;13.43;;;;;;;;;;4997780;28;20423;-93
2023/04/08 04:44:03;;;;;;;20.70;13.00;;;;;;;;;;4985499;28;20465;-92
2023/04/08 04:46:29;;;;;;;18.67;11.60;;;;;;;;;;4984926;28;20504;-93
2023/04/08 04:48:56;;;;;;;22.07;11.97;;;;;;;;;;5013371;28;20514;-92
2023/04/08 04:51:22;;;;;;;23.53;13.17;;;;;;;;;;4995576;28;20424;-91
2023/04/08 04:53:48;;;;;;;23.80;14.03;;;;;;;;;;4982370;28;20491;-94
2023/04/08 04:56:14;;;;;;;25.37;13.80;;;;;;;;;;4983331;28;20476;-92
2023/04/08 04:58:41;;;;;;;24.37;14.07;;;;;;;;;;5013614;28;20954;-93
2023/04/08 05:01:07;;;;;;;22.33;12.23;;;;;;;;;;5005544;28;20471;-92
2023/04/08 05:03:33;;;;;;;20.93;13.17;;;;;;;;;;5013902;28;20503;-94
2023/04/08 05:05:59;;;;;;;22.30;13.57;;;;;;;;;;5011607;28;20436;-92
2023/04/08 05:08:25;;;;;;;18.50;13.27;;;;;;;;;;5010096;28;20409;-92
2023/04/08 05:10:51;;;;;;;24.80;15.10;;;;;;;;;;5015331;28;20475;-92
2023/04/08 05:13:17;;;;;;;23.13;15.70;;;;;;;;;;4987281;28;20435;-93
2023/04/08 05:15:46;;;;;;;25.70;14.60;;;;;;;;;;4989112;28;20443;-93
2023/04/08 05:18:12;;;;;;;20.73;14.03;;;;;;;;;;4984442;28;20796;-93
2023/04/08 05:20:38;;;;;;;17.63;12.40;;;;;;;;;;4983687;28;20512;-92
2023/04/08 05:23:04;;;;;;;23.37;14.17;;;;;;;;;;4977866;28;20976;-92
2023/04/08 05:25:30;;;;;;;22.20;14.30;;;;;;;;;;4999648;28;20417;-91
2023/04/08 05:27:56;;;;;;;18.53;12.13;;;;;;;;;;4981355;28;20430;-92
2023/04/08 05:30:22;;;;;;;18.57;12.23;;;;;;;;;;4985037;28;20799;-94
2023/04/08 05:32:48;;;;;;;23.93;15.07;;;;;;;;;;4969243;28;20415;-92
2023/04/08 05:35:16;;;;;;;21.50;13.67;;;;;;;;;;4979041;28;20427;-93
2023/04/08 05:37:42;;;;;;;19.37;13.73;;;;;;;;;;5008153;28;20424;-92
2023/04/08 05:40:08;;;;;;;19.20;13.20;;;;;;;;;;4991711;28;20529;-92
2023/04/08 05:42:34;;;;;;;21.83;13.13;;;;;;;;;;4985034;28;20480;-93
2023/04/08 05:45:00;;;;;;;18.10;14.10;;;;;;;;;;4983276;28;20529;-93
2023/04/08 05:47:26;;;;;;;18.80;12.77;;;;;;;;;;4968192;28;20444;-92
2023/04/08 05:49:53;;;;;;;24.67;14.30;;;;;;;;;;5012169;28;20420;-93
2023/04/08 05:52:20;;;;;;;24.30;13.93;;;;;;;;;;5004059;28;20451;-92
2023/04/08 05:54:46;;;;;;;22.10;13.90;;;;;;;;;;5008590;28;20441;-92
2023/04/08 05:57:12;;;;;;;19.47;15.47;;;;;;;;;;4990437;28;20423;-92
2023/04/08 05:59:38;;;;;;;19.87;14.33;;;;;;;;;;4982642;28;20408;-92
2023/04/08 06:02:04;;;;;;;23.03;15.60;;;;;;;;;;4988663;28;20455;-93
2023/04/08 06:04:30;;;;;;;23.57;14.37;;;;;;;;;;4982769;28;20467;-92
2023/04/08 06:06:58;;;;;;;22.20;16.20;;;;;;;;;;4983764;28;20467;-93
2023/04/08 06:09:24;;;;;;;23.97;13.97;;;;;;;;;;4984120;28;20954;-92
2023/04/08 06:11:50;;;;;;;19.67;12.53;;;;;;;;;;4981588;28;20435;-93
2023/04/08 06:14:16;;;;;;;15.33;13.00;;;;;;;;;;5001422;28;20416;-93
2023/04/08 06:16:42;;;;;;;24.07;13.30;;;;;;;;;;4983992;28;20931;-92
2023/04/08 06:19:08;;;;;;;22.70;13.60;;;;;;;;;;5008895;28;20495;-93
2023/04/08 06:21:35;;;;;;;28.27;14.73;;;;;;;;;;4989680;28;20426;-92
2023/04/08 06:24:01;;;;;;;24.57;14.90;;;;;;;;;;4984140;28;20470;-93
2023/04/08 06:26:27;;;;;;;22.00;12.87;;;;;;;;;;4974290;28;20507;-92
2023/04/08 06:28:53;;;;;;;17.33;12.70;;;;;;;;;;4999460;28;20428;-92
2023/04/08 06:31:19;;;;;;;20.93;14.10;;;;;;;;;;4986793;28;21016;-92
2023/04/08 06:33:45;;;;;;;20.10;12.77;;;;;;;;;;4982770;28;20419;-92
2023/04/08 06:36:12;;;;;;;19.10;13.67;;;;;;;;;;4977834;28;20777;-93
2023/04/08 06:38:38;;;;;;;24.40;12.37;;;;;;;;;;4982552;28;20432;-92
2023/04/08 06:41:07;;;;;;;17.00;11.70;;;;;;;;;;4986327;28;20435;-93
2023/04/08 06:43:35;;;;;;;17.83;12.30;;;;;;;;;;5007818;28;20514;-93
2023/04/08 06:46:01;;;;;;;20.20;11.80;;;;;;;;;;4983329;28;20436;-91
2023/04/08 06:48:29;;;;;;;21.10;13.50;;;;;;;;;;4985654;28;20440;-93
2023/04/08 06:50:58;;;;;;;15.90;12.30;;;;;;;;;;5010671;28;20424;-93
2023/04/08 06:53:24;;;;;;;16.50;12.40;;;;;;;;;;5001124;28;20432;-93
2023/04/08 06:55:50;;;;;;;18.73;12.17;;;;;;;;;;5006166;28;20432;-92
2023/04/08 06:58:16;;;;;;;20.40;12.50;;;;;;;;;;4989217;28;20498;-93
2023/04/08 07:00:42;;;;;;;18.83;12.93;;;;;;;;;;5007783;28;20416;-93
2023/04/08 07:03:10;;;;;;;19.13;11.87;;;;;;;;;;4975795;28;20464;-92
2023/04/08 07:05:36;;;;;;;16.87;12.17;;;;;;;;;;4979614;28;20436;-93
2023/04/08 07:08:02;;;;;;;18.70;12.70;;;;;;;;;;4985719;28;20417;-93
2023/04/08 07:10:28;;;;;;;16.57;11.03;;;;;;;;;;4988741;28;20420;-92
2023/04/08 07:12:54;;;;;;;16.27;11.10;;;;;;;;;;4987844;28;20416;-94
2023/04/08 07:15:20;;;;;;;17.93;11.63;;;;;;;;;;5017148;28;20471;-92
2023/04/08 07:17:46;;;;;;;16.13;12.03;;;;;;;;;;4987195;28;20911;-94
2023/04/08 07:20:12;;;;;;;15.70;11.07;;;;;;;;;;5003573;28;20436;-93
2023/04/08 07:22:39;;;;;;;21.03;10.97;;;;;;;;;;4992713;28;20435;-93
2023/04/08 07:25:05;;;;;;;17.03;11.20;;;;;;;;;;5008098;28;20506;-93
2023/04/08 07:27:32;;;;;;;23.30;10.73;;;;;;;;;;4983120;28;20470;-92
2023/04/08 07:29:58;;;;;;;18.87;11.50;;;;;;;;;;5002751;28;20420;-94
2023/04/08 07:32:24;;;;;;;20.70;11.90;;;;;;;;;;5001204;28;20420;-93
2023/04/08 07:34:50;;;;;;;15.00;10.40;;;;;;;;;;5030307;28;20440;-93
2023/04/08 07:37:20;;;;;;;18.30;11.27;;;;;;;;;;4991929;28;20450;-91
2023/04/08 07:39:45;;;;;;;18.97;11.10;;;;;;;;;;4989968;28;20719;-94
2023/04/08 07:42:12;;;;;;;15.93;10.87;;;;;;;;;;4987345;28;20578;-92
2023/04/08 07:44:38;;;;;;;18.00;11.30;;;;;;;;;;4995330;28;20530;-93
2023/04/08 07:47:04;;;;;;;15.67;11.63;;;;;;;;;;5010364;28;20533;-93
2023/04/08 07:49:30;;;;;;;16.57;10.87;;;;;;;;;;4991343;28;20429;-93
2023/04/08 07:51:56;;;;;;;19.40;11.60;;;;;;;;;;5015199;28;21186;-92
2023/04/08 07:54:22;;;;;;;15.40;10.27;;;;;;;;;;4991903;28;20432;-94
2023/04/08 07:56:48;;;;;;;14.17;9.60;;;;;;;;;;5007283;28;20428;-92
2023/04/08 07:59:14;;;;;;;12.87;9.77;;;;;;;;;;5007686;28;20512;-94
2023/04/08 08:01:40;;;;;;;14.70;10.27;;;;;;;;;;5008204;28;20412;-92
2023/04/08 08:04:06;;;;;;;14.07;11.20;;;;;;;;;;5006266;28;20459;-93
2023/04/08 08:06:32;;;;;;;13.90;10.87;;;;;;;;;;4989792;28;20431;-92
2023/04/08 08:08:59;;;;;;;12.23;9.40;;;;;;;;;;4984106;28;20941;-93
2023/04/08 08:11:26;;;;;;;14.33;9.43;;;;;;;;;;4986750;28;20422;-94
2023/04/08 08:13:52;;;;;;;14.70;9.80;;;;;;;;;;5010080;28;20429;-94
2023/04/08 08:16:19;;;;;;;12.50;8.53;;;;;;;;;;5005401;28;20432;-92
2023/04/08 08:18:45;;;;;;;12.53;10.63;;;;;;;;;;4982517;28;20428;-93
2023/04/08 08:21:11;;;;;;;15.57;9.80;;;;;;;;;;5006051;28;20505;-93
2023/04/08 08:23:37;;;;;;;13.33;10.33;;;;;;;;;;5000386;28;20509;-93
2023/04/08 08:26:08;;;;;;;13.27;9.50;;;;;;;;;;5000255;28;21195;-94
2023/04/08 08:28:34;;;;;;;11.50;9.03;;;;;;;;;;4984855;28;20432;-92
2023/04/08 08:31:01;;;;;;;14.67;10.10;;;;;;;;;;4982591;28;20448;-94
2023/04/08 08:33:27;;;;;;;13.33;9.87;;;;;;;;;;4981877;28;20443;-93
2023/04/08 08:35:53;;;;;;;14.20;10.83;;;;;;;;;;5020324;28;21118;-93
2023/04/08 08:38:19;;;;;;;15.60;10.60;;;;;;;;;;4978193;28;20424;-91
2023/04/08 08:40:45;;;;;;;13.00;9.33;;;;;;;;;;4985157;28;20428;-92
2023/04/08 08:43:11;;;;;;;16.97;11.17;;;;;;;;;;4984377;28;20439;-93
2023/04/08 08:45:40;;;;;;;13.47;9.30;;;;;;;;;;4984718;28;20431;-92
2023/04/08 08:48:10;;;;;;;12.07;8.83;;;;;;;;;;4986556;28;20440;-89
2023/04/08 08:50:36;;;;;;;12.57;10.23;;;;;;;;;;5006285;28;20435;-92
2023/04/08 08:53:02;;;;;;;13.70;9.83;;;;;;;;;;4991258;28;20527;-91
2023/04/08 08:55:30;;;;;;;12.77;10.47;;;;;;;;;;4984317;28;20444;-90
2023/04/08 08:57:56;;;;;;;14.80;11.63;;;;;;;;;;5017772;28;20423;-90
2023/04/08 09:00:32;;;;;;;15.00;10.60;;;;;;;;;;4982333;28;20420;-90
2023/04/08 09:03:10;;;;;;;13.97;10.60;;;;;;;;;;4981429;28;20448;-91
2023/04/08 09:05:47;;;;;;;13.60;10.70;;;;;;;;;;4981006;28;20454;-91
2023/04/08 09:08:32;;;;;;;15.10;10.80;;;;;;;;;;4984822;28;20851;-90
2023/04/08 09:11:11;;;;;;;13.47;10.17;;;;;;;;;;4977990;28;20440;-91
2023/04/08 09:13:37;;;;;;;13.00;10.83;;;;;;;;;;5010175;28;20413;-91
2023/04/08 09:16:04;;;;;;;13.83;11.00;;;;;;;;;;4983353;28;20486;-91
2023/04/08 09:18:30;;;;;;;14.87;11.17;;;;;;;;;;5017622;28;20454;-90
2023/04/08 09:20:56;;;;;;;13.67;10.60;;;;;;;;;;4982288;28;20452;-91
2023/04/08 09:23:22;;;;;;;13.40;10.00;;;;;;;;;;4997190;28;20455;-91
2023/04/08 09:25:48;;;;;;;14.30;10.17;;;;;;;;;;4981606;28;20432;-92
2023/04/08 09:28:21;;;;;;;11.63;9.93;;;;;;;;;;4982390;28;20436;-91
2023/04/08 09:30:47;;;;;;;14.47;10.57;;;;;;;;;;4984251;28;20470;-92
2023/04/08 09:33:13;;;;;;;14.30;10.90;;;;;;;;;;4986285;28;20429;-90
2023/04/08 09:35:39;;;;;;;15.77;11.13;;;;;;;;;;5008121;28;20471;-90
2023/04/08 09:38:05;;;;;;;13.47;10.00;;;;;;;;;;4999690;28;20477;-90
2023/04/08 09:40:37;;;;;;;16.13;10.53;;;;;;;;;;5000747;28;20486;-91
2023/04/08 09:43:06;;;;;;;12.80;10.10;;;;;;;;;;4992896;28;20472;-91
2023/04/08 09:45:33;;;;;;;12.80;10.67;;;;;;;;;;4976774;28;20423;-91
2023/04/08 09:47:59;;;;;;;14.80;11.60;;;;;;;;;;4996811;28;20473;-91
2023/04/08 09:50:27;;;;;;;12.37;10.93;;;;;;;;;;4992769;28;20884;-90
2023/04/08 09:53:00;;;;;;;12.00;10.30;;;;;;;;;;4980343;28;20519;-92
2023/04/08 09:55:26;;;;;;;14.60;11.33;;;;;;;;;;4994199;28;20424;-92
2023/04/08 09:57:53;;;;;;;11.67;10.30;;;;;;;;;;4981575;28;20522;-92
2023/04/08 10:00:21;;;;;;;9.63;8.60;;;;;;;;;;4980439;28;20474;-91
2023/04/08 10:02:56;;;;;;;11.23;8.83;;;;;;;;;;5001733;28;20436;-93
2023/04/08 10:05:23;;;;;;;11.23;9.27;;;;;;;;;;5001724;28;20446;-92
2023/04/08 10:07:49;;;;;;;14.23;10.43;;;;;;;;;;4981645;28;20491;-91
2023/04/08 10:10:15;;;;;;;13.87;9.50;;;;;;;;;;4981157;28;20439;-92
2023/04/08 10:12:41;;;;;;;11.60;9.80;;;;;;;;;;4977278;28;20432;-92
2023/04/08 10:15:23;;;;;;;11.60;9.10;;;;;;;;;;5002907;28;20785;-92
2023/04/08 10:17:50;;;;;;;12.10;9.70;;;;;;;;;;4997320;28;20503;-91
2023/04/08 10:20:37;;;;;;;10.47;8.47;;;;;;;;;;5004138;28;20455;-89
2023/04/08 10:23:11;;;;;;;12.80;8.70;;;;;;;;;;4998862;28;21025;-92
2023/04/08 10:25:38;;;;;;;13.67;10.47;;;;;;;;;;4986376;28;20975;-92
2023/04/08 10:28:16;;;;;;;14.63;9.57;;;;;;;;;;5001492;28;20444;-92
2023/04/08 10:30:43;;;;;;;9.70;8.63;;;;;;;;;;4998684;28;20447;-93
2023/04/08 10:33:09;;;;;;;13.27;9.93;;;;;;;;;;5028293;28;20808;-93
2023/04/08 10:35:35;;;;;;;11.23;8.63;;;;;;;;;;5002311;28;20959;-93
2023/04/08 10:38:02;;;;;;;11.27;9.87;;;;;;;;;;4988636;28;20446;-92
2023/04/08 10:40:28;;;;;;;11.93;9.27;;;;;;;;;;4984799;28;20560;-92
2023/04/08 10:42:55;;;;;;;10.23;8.20;;;;;;;;;;5000308;28;20480;-91
2023/04/08 10:45:21;;;;;;;13.53;10.07;;;;;;;;;;5001016;28;20489;-91
2023/04/08 10:47:47;;;;;;;10.77;8.80;;;;;;;;;;4988464;28;20424;-92
2023/04/08 10:50:16;;;;;;;10.50;8.57;;;;;;;;;;4985587;28;20961;-92
2023/04/08 10:52:46;;;;;;;14.63;10.33;;;;;;;;;;4985975;28;20436;-91
2023/04/08 10:55:12;;;;;;;12.00;9.03;;;;;;;;;;4986850;28;20440;-92
2023/04/08 10:57:40;;;;;;;12.30;9.07;;;;;;;;;;4988714;28;20439;-96
2023/04/08 11:00:09;;;;;;;11.33;9.93;;;;;;;;;;5001877;28;20461;-92
2023/04/08 11:02:37;;;;;;;12.50;9.70;;;;;;;;;;4996862;28;20411;-92
2023/04/08 11:05:03;;;;;;;10.47;9.37;;;;;;;;;;4984573;28;20467;-91
2023/04/08 11:07:29;;;;;;;12.20;9.60;;;;;;;;;;4989073;28;21011;-91
2023/04/08 11:09:55;;;;;;;11.23;8.83;;;;;;;;;;5003402;28;20437;-92
2023/04/08 11:12:22;;;;;;;13.03;10.10;;;;;;;;;;4984637;28;20416;-92
2023/04/08 11:14:50;;;;;;;11.83;9.20;;;;;;;;;;4984834;28;20431;-91
2023/04/08 11:17:16;;;;;;;16.53;10.20;;;;;;;;;;5001628;28;20428;-91
2023/04/08 11:19:42;;;;;;;10.47;9.03;;;;;;;;;;4980568;28;20473;-92
2023/04/08 11:22:09;;;;;;;11.30;8.07;;;;;;;;;;4986586;28;21350;-91
2023/04/08 11:24:36;;;;;;;12.00;9.70;;;;;;;;;;4987043;28;20468;-90
2023/04/08 11:27:03;;;;;;;12.63;9.60;;;;;;;;;;4984442;28;20516;-92
2023/04/08 11:29:29;;;;;;;12.80;9.30;;;;;;;;;;4985446;28;20436;-92
2023/04/08 11:31:55;;;;;;;10.70;8.83;;;;;;;;;;4980524;28;20428;-91
2023/04/08 11:34:22;;;;;;;11.67;10.00;;;;;;;;;;4983517;28;20849;-91
2023/04/08 11:36:48;;;;;;;11.30;9.27;;;;;;;;;;5000574;28;20428;-91
2023/04/08 11:39:15;;;;;;;15.80;10.70;;;;;;;;;;5002937;28;20465;-91
2023/04/08 11:41:41;;;;;;;10.60;9.50;;;;;;;;;;4988433;28;20436;-91
2023/04/08 11:44:08;;;;;;;10.63;9.53;;;;;;;;;;5002028;28;20459;-91
2023/04/08 11:46:34;;;;;;;11.80;10.00;;;;;;;;;;4982927;28;20440;-90
2023/04/08 11:49:01;;;;;;;13.10;8.10;;;;;;;;;;4999474;28;20423;-89
2023/04/08 11:51:27;;;;;;;10.70;8.60;;;;;;;;;;4979972;28;20904;-91
2023/04/08 11:53:53;;;;;;;11.30;9.33;;;;;;;;;;4992381;28;20462;-91
2023/04/08 11:56:22;;;;;;;12.20;9.30;;;;;;;;;;4982567;28;20435;-91
2023/04/08 11:58:48;;;;;;;11.03;9.67;;;;;;;;;;4978142;28;20793;-91
2023/04/08 12:01:14;;;;;;;10.53;9.43;;;;;;;;;;4984174;28;20482;-92
2023/04/08 12:04:01;;;;;;;10.43;8.30;;;;;;;;;;4992423;28;20455;-91
2023/04/08 12:06:27;;;;;;;11.23;9.83;;;;;;;;;;4989307;28;20431;-92
2023/04/08 12:08:54;;;;;;;11.73;9.93;;;;;;;;;;4980397;28;20504;-92
2023/04/08 12:11:20;;;;;;;11.77;9.90;;;;;;;;;;4994876;28;20442;-92
2023/04/08 12:13:48;;;;;;;12.63;9.47;;;;;;;;;;4986086;28;20433;-91
2023/04/08 12:16:14;;;;;;;11.67;9.67;;;;;;;;;;4987132;28;20412;-90
2023/04/08 12:18:40;;;;;;;14.50;10.57;;;;;;;;;;4981965;28;20429;-93
2023/04/08 12:21:06;;;;;;;10.63;9.50;;;;;;;;;;4981273;28;20484;-92
2023/04/08 12:23:32;;;;;;;13.90;10.00;;;;;;;;;;4988693;28;20451;-92
2023/04/08 12:25:58;;;;;;;14.70;10.90;;;;;;;;;;4995470;28;20990;-92
2023/04/08 12:28:24;;;;;;;11.23;9.30;;;;;;;;;;4982760;28;20416;-85
2023/04/08 12:30:51;;;;;;;13.83;10.13;;;;;;;;;;4991064;28;20438;-89
2023/04/08 12:33:17;;;;;;;11.50;8.60;;;;;;;;;;4983628;28;20599;-92
2023/04/08 12:35:43;;;;;;;12.57;9.43;;;;;;;;;;4981385;28;20788;-90
2023/04/08 12:38:09;;;;;;;10.77;9.60;;;;;;;;;;4987008;28;20427;-91
2023/04/08 12:40:35;;;;;;;12.00;10.10;;;;;;;;;;4981029;28;20458;-91
2023/04/08 12:43:01;;;;;;;12.73;9.70;;;;;;;;;;4984378;28;20885;-91
2023/04/08 12:45:27;;;;;;;15.90;10.20;;;;;;;;;;4989280;28;20439;-91
2023/04/08 12:47:53;;;;;;;10.60;9.20;;;;;;;;;;4988454;28;20420;-93
2023/04/08 12:50:19;;;;;;;12.97;9.67;;;;;;;;;;4980488;28;21257;-91
2023/04/08 12:52:45;;;;;;;10.47;9.03;;;;;;;;;;4982028;28;20507;-90
2023/04/08 12:55:11;;;;;;;11.60;9.43;;;;;;;;;;4980278;28;20816;-89
2023/04/08 12:57:37;;;;;;;11.87;10.10;;;;;;;;;;4983640;28;20443;-90
2023/04/08 13:00:03;;;;;;;11.47;8.97;;;;;;;;;;5000652;28;20466;-90
2023/04/08 13:02:29;;;;;;;9.57;8.67;;;;;;;;;;4996240;28;20446;-91
2023/04/08 13:04:55;;;;;;;12.57;10.17;;;;;;;;;;5019628;28;20462;-91
2023/04/08 13:07:22;;;;;;;12.33;8.87;;;;;;;;;;4972619;28;20433;-91
2023/04/08 13:09:48;;;;;;;13.47;11.03;;;;;;;;;;4983139;28;20503;-91
2023/04/08 13:12:15;;;;;;;11.27;8.70;;;;;;;;;;4986364;28;20440;-93
2023/04/08 13:14:41;;;;;;;12.73;9.50;;;;;;;;;;4990296;28;20439;-94
2023/04/08 13:17:07;;;;;;;12.23;9.23;;;;;;;;;;5007386;28;20475;-94
2023/04/08 13:19:33;;;;;;;13.00;8.83;;;;;;;;;;4996971;28;20500;-93
2023/04/08 13:21:59;;;;;;;12.10;9.00;;;;;;;;;;4969998;28;20540;-93
2023/04/08 13:24:26;;;;;;;13.10;10.30;;;;;;;;;;4966003;28;20538;-92
2023/04/08 13:26:52;;;;;;;10.97;9.43;;;;;;;;;;4966493;28;20421;-93
2023/04/08 13:29:18;;;;;;;15.57;9.97;;;;;;;;;;4983666;28;20436;-94
2023/04/08 13:31:44;;;;;;;9.63;8.13;;;;;;;;;;4985200;28;20424;-94
2023/04/08 13:34:10;;;;;;;11.13;9.13;;;;;;;;;;4994521;28;20423;-93
2023/04/08 13:36:36;;;;;;;10.10;8.57;;;;;;;;;;4983859;28;20475;-94
2023/04/08 13:39:02;;;;;;;9.50;8.50;;;;;;;;;;4991235;28;20439;-95
2023/04/08 13:41:28;;;;;;;10.90;9.20;;;;;;;;;;4992210;28;20849;-91
2023/04/08 13:43:55;;;;;;;11.70;8.23;;;;;;;;;;4984802;28;20503;-94
2023/04/08 13:46:21;;;;;;;11.80;8.93;;;;;;;;;;4987179;28;20447;-93
2023/04/08 13:48:47;;;;;;;11.07;9.00;;;;;;;;;;4981117;28;20465;-93
2023/04/08 13:51:13;;;;;;;10.30;8.83;;;;;;;;;;4981639;28;20409;-93
2023/04/08 13:53:39;;;;;;;11.90;9.20;;;;;;;;;;4996045;28;20435;-93
2023/04/08 13:56:05;;;;;;;15.80;10.17;;;;;;;;;;4998683;28;20436;-93
2023/04/08 13:58:31;;;;;;;15.80;10.10;;;;;;;;;;4984151;28;20429;-93
2023/04/08 14:00:57;;;;;;;10.97;9.10;;;;;;;;;;4986699;28;20929;-93
2023/04/08 14:03:23;;;;;;;12.53;9.53;;;;;;;;;;4985726;28;20456;-93
2023/04/08 14:05:52;;;;;;;11.60;9.03;;;;;;;;;;4986190;28;20449;-93
2023/04/08 14:08:24;;;;;;;11.20;8.80;;;;;;;;;;4986268;28;20416;-93
2023/04/08 14:10:51;;;;;;;9.77;8.33;;;;;;;;;;4972032;28;20506;-93
2023/04/08 14:13:17;;;;;;;14.63;8.77;;;;;;;;;;5010662;28;20501;-95
2023/04/08 14:15:48;;;;;;;12.03;10.40;;;;;;;;;;5028060;28;20407;-94
2023/04/08 14:18:17;;;;;;;10.30;9.20;;;;;;;;;;4991106;28;20424;-96
2023/04/08 14:20:43;;;;;;;10.43;8.57;;;;;;;;;;4980839;28;20451;-95